createdAt,value
2022-12-23T00:00:30.919Z,29.27
2022-12-23T00:03:35.777Z,31.40
2022-12-23T00:06:38.771Z,29.60
2022-12-23T00:09:41.728Z,31.03
2022-12-23T00:13:02.147Z,28.50
2022-12-23T00:16:08.081Z,27.60
2022-12-23T00:19:12.544Z,28.90
2022-12-23T00:22:15.547Z,27.03
2022-12-23T00:25:19.130Z,27.73
2022-12-23T00:28:24.583Z,27.50
2022-12-23T00:31:27.739Z,26.20
2022-12-23T00:34:32.167Z,27.57
2022-12-23T00:37:35.175Z,26.73
2022-12-23T00:40:55.913Z,26.80
2022-12-23T00:43:58.990Z,27.97
2022-12-23T00:47:02.005Z,26.20
2022-12-23T00:50:06.415Z,27.67
2022-12-23T00:53:09.421Z,26.50
2022-12-23T00:56:12.370Z,27.17
2022-12-23T00:59:15.434Z,26.90
2022-12-23T01:02:35.930Z,25.60
2022-12-23T01:05:40.394Z,25.53
2022-12-23T01:08:43.388Z,24.70
2022-12-23T01:11:46.478Z,25.23
2022-12-23T01:14:49.853Z,25.70
2022-12-23T01:17:52.952Z,26.00
2022-12-23T01:20:57.397Z,25.17
2022-12-23T01:24:00.610Z,24.37
2022-12-23T01:27:03.647Z,24.10
2022-12-23T01:30:07.976Z,25.63
2022-12-23T01:33:10.973Z,24.50
2022-12-23T01:36:15.347Z,25.20
2022-12-23T01:39:18.640Z,23.80
2022-12-23T01:42:39.053Z,24.00
2022-12-23T01:45:42.228Z,22.27
2022-12-23T01:48:48.560Z,23.10
2022-12-23T01:51:53.486Z,23.57
2022-12-23T01:54:57.429Z,24.03
2022-12-23T01:58:09.875Z,22.37
2022-12-23T02:01:30.972Z,21.93
2022-12-23T02:04:34.063Z,20.90
2022-12-23T02:08:10.407Z,22.07
2022-12-23T02:11:32.938Z,21.70
2022-12-23T02:15:08.046Z,20.10
2022-12-23T02:18:27.605Z,20.60
2022-12-23T02:22:03.063Z,21.43
2022-12-23T02:25:30.329Z,20.80
2022-12-23T02:29:06.913Z,20.97
2022-12-23T02:32:18.820Z,20.43
2022-12-23T02:35:30.504Z,20.90
2022-12-23T02:38:40.320Z,21.40
2022-12-23T02:41:48.519Z,21.80
2022-12-23T02:45:00.216Z,20.20
2022-12-23T02:48:10.100Z,21.70
2022-12-23T02:51:15.855Z,22.23
2022-12-23T02:54:26.131Z,22.30
2022-12-23T02:57:35.423Z,22.40
2022-12-23T03:00:41.419Z,21.73
2022-12-23T03:03:48.863Z,21.33
2022-12-23T03:06:55.544Z,22.63
2022-12-23T03:09:59.898Z,22.40
2022-12-23T03:13:10.353Z,23.90
2022-12-23T03:16:21.901Z,22.33
2022-12-23T03:19:33.116Z,23.70
2022-12-23T03:22:40.246Z,22.80
2022-12-23T03:25:51.343Z,24.03
2022-12-23T03:28:59.897Z,22.93
2022-12-23T03:32:04.180Z,22.70
2022-12-23T03:35:13.589Z,22.10
2022-12-23T03:38:19.610Z,21.23
2022-12-23T03:41:28.991Z,23.53
2022-12-23T03:44:36.888Z,22.80
2022-12-23T03:47:45.711Z,22.27
2022-12-23T03:50:54.989Z,22.50
2022-12-23T03:54:02.665Z,22.77
2022-12-23T03:57:08.732Z,22.77
2022-12-23T04:00:14.020Z,22.93
2022-12-23T04:03:23.416Z,23.70
2022-12-23T04:06:31.627Z,22.30
2022-12-23T04:09:36.174Z,20.73
2022-12-23T04:12:40.440Z,21.30
2022-12-23T04:15:43.958Z,22.20
2022-12-23T04:18:46.999Z,20.40
2022-12-23T04:21:51.400Z,20.77
2022-12-23T04:24:54.446Z,20.40
2022-12-23T04:27:57.502Z,20.17
2022-12-23T04:31:00.553Z,19.53
2022-12-23T04:34:03.605Z,20.73
2022-12-23T04:37:08.137Z,21.10
2022-12-23T04:40:11.512Z,20.70
2022-12-23T04:43:14.717Z,20.67
2022-12-23T04:46:17.813Z,20.83
2022-12-23T04:49:20.908Z,23.53
2022-12-23T04:52:25.523Z,23.40
2022-12-23T04:55:28.537Z,25.10
2022-12-23T04:58:31.631Z,23.90
2022-12-23T05:01:34.659Z,22.40
2022-12-23T05:04:38.064Z,22.70
2022-12-23T05:07:42.445Z,24.10
2022-12-23T05:10:46.143Z,24.13
2022-12-23T05:13:49.197Z,25.13
2022-12-23T05:16:52.257Z,22.77
2022-12-23T05:19:56.603Z,24.20
2022-12-23T05:23:00.928Z,23.17
2022-12-23T05:26:03.951Z,22.90
2022-12-23T05:29:06.978Z,22.33
2022-12-23T05:32:10.108Z,22.70
2022-12-23T05:35:13.248Z,21.30
2022-12-23T05:38:17.686Z,22.40
2022-12-23T05:41:20.788Z,22.07
2022-12-23T05:44:23.822Z,21.40
2022-12-23T05:47:26.848Z,20.70
2022-12-23T05:50:29.999Z,21.00
2022-12-23T05:53:34.511Z,20.40
2022-12-23T05:56:37.443Z,19.80
2022-12-23T05:59:40.370Z,20.33
2022-12-23T06:02:46.123Z,20.37
2022-12-23T06:05:53.334Z,19.57
2022-12-23T06:09:00.060Z,20.87
2022-12-23T06:12:03.348Z,21.00
2022-12-23T06:15:07.364Z,18.80
2022-12-23T06:18:10.622Z,19.77
2022-12-23T06:21:13.663Z,19.77
2022-12-23T06:24:18.054Z,19.03
2022-12-23T06:27:21.150Z,19.97
2022-12-23T06:30:24.202Z,19.93
2022-12-23T06:33:27.256Z,19.33
2022-12-23T06:36:30.355Z,18.87
2022-12-23T06:39:35.057Z,18.40
2022-12-23T06:42:38.139Z,18.83
2022-12-23T06:45:41.676Z,18.70
2022-12-23T06:48:44.673Z,18.47
2022-12-23T06:51:47.735Z,19.10
2022-12-23T06:54:52.131Z,18.67
2022-12-23T06:57:55.178Z,18.87
2022-12-23T07:00:58.214Z,18.57
2022-12-23T07:04:01.996Z,18.63
2022-12-23T07:07:05.079Z,18.97
2022-12-23T07:10:10.935Z,20.17
2022-12-23T07:13:14.098Z,18.97
2022-12-23T07:16:17.477Z,18.10
2022-12-23T07:19:20.556Z,19.30
2022-12-23T07:22:23.537Z,17.60
2022-12-23T07:25:28.081Z,18.20
2022-12-23T07:28:31.136Z,19.70
2022-12-23T07:31:35.476Z,20.50
2022-12-23T07:34:41.099Z,19.50
2022-12-23T07:37:44.279Z,19.33
2022-12-23T07:40:51.325Z,18.90
2022-12-23T07:43:54.832Z,20.13
2022-12-23T07:46:57.839Z,19.57
2022-12-23T07:50:00.985Z,19.00
2022-12-23T07:53:04.016Z,17.80
2022-12-23T07:56:09.375Z,18.87
2022-12-23T07:59:12.396Z,19.40
2022-12-23T08:02:15.650Z,19.00
2022-12-23T08:05:18.990Z,18.67
2022-12-23T08:08:22.107Z,19.00
2022-12-23T08:11:26.517Z,18.20
2022-12-23T08:14:29.510Z,18.90
2022-12-23T08:17:33.047Z,17.97
2022-12-23T08:20:36.033Z,17.47
2022-12-23T08:23:39.563Z,18.47
2022-12-23T08:26:43.979Z,17.70
2022-12-23T08:29:47.607Z,17.50
2022-12-23T08:32:50.611Z,18.57
2022-12-23T08:35:55.780Z,17.87
2022-12-23T08:39:00.608Z,18.37
2022-12-23T08:42:05.216Z,18.10
2022-12-23T08:45:09.203Z,17.90
2022-12-23T08:48:12.232Z,18.90
2022-12-23T08:51:17.155Z,19.07
2022-12-23T08:54:20.594Z,17.43
2022-12-23T08:57:24.969Z,19.60
2022-12-23T09:00:28.053Z,18.63
2022-12-23T09:03:31.310Z,18.97
2022-12-23T09:06:37.278Z,19.20
2022-12-23T09:09:40.318Z,18.87
2022-12-23T09:12:44.692Z,19.00
2022-12-23T09:15:48.013Z,18.70
2022-12-23T09:18:51.076Z,19.40
2022-12-23T09:21:54.251Z,18.80
2022-12-23T09:25:03.144Z,18.80
2022-12-23T09:28:10.832Z,17.77
2022-12-23T09:31:14.387Z,17.73
2022-12-23T09:34:17.425Z,17.90
2022-12-23T09:37:20.403Z,18.83
2022-12-23T09:40:23.883Z,17.80
2022-12-23T09:43:40.133Z,16.90
2022-12-23T09:46:48.947Z,17.53
2022-12-23T09:49:54.777Z,16.93
2022-12-23T09:53:03.056Z,17.40
2022-12-23T09:56:15.954Z,17.10
2022-12-23T09:59:32.269Z,16.83
2022-12-23T10:02:48.028Z,16.17
2022-12-23T10:06:02.523Z,16.27
2022-12-23T10:09:08.615Z,16.47
2022-12-23T10:12:27.318Z,16.30
2022-12-23T10:15:38.354Z,16.40
2022-12-23T10:18:51.417Z,15.53
2022-12-23T10:22:01.318Z,15.90
2022-12-23T10:25:06.799Z,15.90
2022-12-23T10:28:11.119Z,15.30
2022-12-23T10:34:50.601Z,16.60
2022-12-23T10:37:59.077Z,15.00
2022-12-23T10:41:11.250Z,15.30
2022-12-23T10:44:37.714Z,15.23
2022-12-23T10:47:51.090Z,15.30
2022-12-23T10:51:00.526Z,15.50
2022-12-23T10:54:07.949Z,14.40
2022-12-23T10:57:11.673Z,14.83
2022-12-23T11:00:37.819Z,15.80
2022-12-23T11:03:47.657Z,14.90
2022-12-23T11:07:18.070Z,13.93
2022-12-23T11:10:20.484Z,15.30
2022-12-23T11:13:37.094Z,15.10
2022-12-23T11:16:47.175Z,14.80
2022-12-23T11:20:09.770Z,14.50
2022-12-23T11:23:26.880Z,14.63
2022-12-23T11:26:30.077Z,15.67
2022-12-23T11:29:36.604Z,14.47
2022-12-23T11:32:39.988Z,14.23
2022-12-23T11:35:45.620Z,13.70
2022-12-23T11:38:51.155Z,14.20
2022-12-23T11:42:02.842Z,14.90
2022-12-23T11:45:09.246Z,14.10
2022-12-23T11:48:29.929Z,13.43
2022-12-23T11:51:34.697Z,14.50
2022-12-23T11:54:38.984Z,13.90
2022-12-23T11:57:45.712Z,14.53
2022-12-23T12:00:56.038Z,13.80
2022-12-23T12:04:03.856Z,13.87
2022-12-23T12:07:13.326Z,13.63
2022-12-23T12:10:20.017Z,14.30
2022-12-23T12:13:27.672Z,13.53
2022-12-23T12:16:48.268Z,15.10
2022-12-23T12:20:04.938Z,14.13
2022-12-23T12:23:16.067Z,14.43
2022-12-23T12:26:26.724Z,13.50
2022-12-23T12:29:34.680Z,12.90
2022-12-23T12:32:48.095Z,13.93
2022-12-23T12:36:04.964Z,13.80
2022-12-23T12:39:19.344Z,13.10
2022-12-23T12:42:30.274Z,13.67
2022-12-23T12:45:40.120Z,14.20
2022-12-23T12:48:49.949Z,13.70
2022-12-23T12:51:59.542Z,14.10
2022-12-23T12:55:13.887Z,12.90
2022-12-23T12:58:21.624Z,13.30
2022-12-23T13:01:44.216Z,12.60
2022-12-23T13:05:06.595Z,12.40
2022-12-23T13:08:28.944Z,14.13
2022-12-23T13:11:45.277Z,13.40
2022-12-23T13:15:02.196Z,13.47
2022-12-23T13:18:26.668Z,13.23
2022-12-23T13:21:34.097Z,13.20
2022-12-23T13:24:47.451Z,13.63
2022-12-23T13:27:58.471Z,12.93
2022-12-23T13:31:08.169Z,12.87
2022-12-23T13:34:27.373Z,13.23
2022-12-23T13:37:37.678Z,13.40
2022-12-23T13:40:49.259Z,14.23
2022-12-23T13:43:57.629Z,12.90
2022-12-23T13:47:13.827Z,12.90
2022-12-23T13:50:24.659Z,13.93
2022-12-23T13:53:41.238Z,13.37
2022-12-23T13:56:50.432Z,13.30
2022-12-23T14:00:06.043Z,12.67
2022-12-23T14:03:34.192Z,12.30
2022-12-23T14:06:45.146Z,12.80
2022-12-23T14:09:53.273Z,12.83
2022-12-23T14:13:03.083Z,12.50
2022-12-23T14:16:36.330Z,13.80
2022-12-23T14:19:56.960Z,12.90
2022-12-23T14:23:10.979Z,11.90
2022-12-23T14:26:27.951Z,13.03
2022-12-23T14:29:43.164Z,13.03
2022-12-23T14:32:51.485Z,12.57
2022-12-23T14:35:58.233Z,13.10
2022-12-23T14:39:32.884Z,12.83
2022-12-23T14:42:37.861Z,13.10
2022-12-23T14:45:43.925Z,12.73
2022-12-23T14:49:38.893Z,13.20
2022-12-23T14:53:00.338Z,12.43
2022-12-23T14:56:21.780Z,13.13
2022-12-23T14:59:31.761Z,13.63
2022-12-23T15:02:38.332Z,13.30
2022-12-23T15:05:41.979Z,14.53
2022-12-23T15:08:48.845Z,14.13
2022-12-23T15:11:52.808Z,13.90
2022-12-23T15:14:59.199Z,14.13
2022-12-23T15:18:03.781Z,13.63
2022-12-23T15:21:13.391Z,13.53
2022-12-23T15:24:21.195Z,14.10
2022-12-23T15:27:27.953Z,13.37
2022-12-23T15:30:36.327Z,14.10
2022-12-23T15:37:03.240Z,13.40
2022-12-23T15:40:23.555Z,13.67
2022-12-23T15:43:26.652Z,13.60
2022-12-23T15:46:32.586Z,14.30
2022-12-23T15:49:35.761Z,14.50
2022-12-23T15:52:42.255Z,13.67
2022-12-23T15:55:48.425Z,13.73
2022-12-23T15:58:52.135Z,14.50
2022-12-23T16:01:55.546Z,13.57
2022-12-23T16:05:01.789Z,13.93
2022-12-23T16:08:12.840Z,14.10
2022-12-23T16:11:19.507Z,14.63
2022-12-23T16:14:34.300Z,14.67
2022-12-23T16:17:38.045Z,14.17
2022-12-23T16:20:43.265Z,15.17
2022-12-23T16:23:51.462Z,14.07
2022-12-23T16:26:56.973Z,15.17
2022-12-23T16:30:03.133Z,15.10
2022-12-23T16:33:08.620Z,14.47
2022-12-23T16:36:19.525Z,14.97
2022-12-23T16:39:23.990Z,15.57
2022-12-23T16:42:28.399Z,15.13
2022-12-23T16:45:33.963Z,15.77
2022-12-23T16:48:40.192Z,15.30
2022-12-23T16:51:43.867Z,15.13
2022-12-23T16:54:46.887Z,15.20
2022-12-23T16:57:51.579Z,15.57
2022-12-23T17:00:55.857Z,16.43
2022-12-23T17:03:59.082Z,15.17
2022-12-23T17:07:02.125Z,16.20
2022-12-23T17:10:05.758Z,15.73
2022-12-23T17:13:19.573Z,15.73
2022-12-23T17:16:24.522Z,16.30
2022-12-23T17:19:29.251Z,15.83
2022-12-23T17:22:35.443Z,14.83
2022-12-23T17:25:38.475Z,15.27
2022-12-23T17:28:42.946Z,15.90
2022-12-23T17:31:46.988Z,14.70
2022-12-23T17:34:50.041Z,14.93
2022-12-23T17:37:54.114Z,15.40
2022-12-23T17:40:59.185Z,14.90
2022-12-23T17:44:03.592Z,15.30
2022-12-23T17:47:11.759Z,15.20
2022-12-23T17:50:14.816Z,17.97
2022-12-23T17:53:19.086Z,17.60
2022-12-23T17:56:23.173Z,24.77
2022-12-23T17:59:27.514Z,27.10
2022-12-23T18:02:35.241Z,30.73
2022-12-23T18:05:38.366Z,35.70
2022-12-23T18:08:41.519Z,37.70
2022-12-23T18:11:47.248Z,38.40
2022-12-23T18:14:51.815Z,36.53
2022-12-23T18:17:54.849Z,36.63
2022-12-23T18:20:58.401Z,36.30
2022-12-23T18:24:01.542Z,35.27
2022-12-23T18:27:10.313Z,36.40
2022-12-23T18:30:15.250Z,35.73
2022-12-23T18:33:19.374Z,35.20
2022-12-23T18:36:24.585Z,33.00
2022-12-23T18:39:27.634Z,32.67
2022-12-23T18:42:30.664Z,33.20
2022-12-23T18:45:37.727Z,33.47
2022-12-23T18:48:40.837Z,31.63
2022-12-23T18:51:43.827Z,30.50
2022-12-23T18:54:46.881Z,28.87
2022-12-23T18:57:50.720Z,29.50
2022-12-23T19:00:55.128Z,28.50
2022-12-23T19:03:58.118Z,30.00
2022-12-23T19:07:01.126Z,29.90
2022-12-23T19:10:06.708Z,27.17
2022-12-23T19:13:10.383Z,27.03
2022-12-23T19:16:16.497Z,26.80
2022-12-23T19:19:19.539Z,25.23
2022-12-23T19:22:22.614Z,24.97
2022-12-23T19:25:25.659Z,24.80
2022-12-23T19:28:28.701Z,25.03
2022-12-23T19:31:34.161Z,23.60
2022-12-23T19:34:37.405Z,20.97
2022-12-23T19:37:40.534Z,23.17
2022-12-23T19:40:43.695Z,22.10
2022-12-23T19:43:47.540Z,21.27
2022-12-23T19:46:52.161Z,21.50
2022-12-23T19:49:55.229Z,24.00
2022-12-23T19:52:58.357Z,23.63
2022-12-23T19:56:03.831Z,24.77
2022-12-23T19:59:06.950Z,25.10
2022-12-23T20:02:15.110Z,25.00
2022-12-23T20:05:18.445Z,26.43
2022-12-23T20:08:21.490Z,27.47
2022-12-23T20:11:26.390Z,26.80
2022-12-23T20:14:33.832Z,27.93
2022-12-23T20:17:39.137Z,27.90
2022-12-23T20:20:45.091Z,28.93
2022-12-23T20:23:48.140Z,27.47
2022-12-23T20:26:51.203Z,28.67
2022-12-23T20:29:54.209Z,27.10
2022-12-23T20:32:58.804Z,29.53
2022-12-23T20:36:02.974Z,28.03
2022-12-23T20:39:06.441Z,26.80
2022-12-23T20:42:09.549Z,27.70
2022-12-23T20:45:13.540Z,28.03
2022-12-23T20:48:18.436Z,27.00
2022-12-23T20:51:24.167Z,26.10
2022-12-23T20:54:32.561Z,26.00
2022-12-23T20:57:36.783Z,25.23
2022-12-23T21:00:39.791Z,27.20
2022-12-23T21:03:44.241Z,27.20
2022-12-23T21:06:47.653Z,28.50
2022-12-23T21:09:50.647Z,30.03
2022-12-23T21:12:53.680Z,28.43
2022-12-23T21:16:01.843Z,28.13
2022-12-23T21:19:07.337Z,27.80
2022-12-23T21:22:10.382Z,28.40
2022-12-23T21:25:13.428Z,29.17
2022-12-23T21:28:16.562Z,26.73
2022-12-23T21:31:22.076Z,25.17
2022-12-23T21:34:26.596Z,27.23
2022-12-23T21:37:29.726Z,26.60
2022-12-23T21:40:32.823Z,26.67
2022-12-23T21:43:36.157Z,24.37
2022-12-23T21:46:39.139Z,24.23
2022-12-23T21:49:44.266Z,23.77
2022-12-23T21:52:47.192Z,25.80
2022-12-23T21:55:50.238Z,28.00
2022-12-23T21:58:56.450Z,25.57
2022-12-23T22:01:59.564Z,28.30
2022-12-23T22:05:04.028Z,26.30
2022-12-23T22:08:07.127Z,26.10
2022-12-23T22:11:11.341Z,24.73
2022-12-23T22:14:16.234Z,25.07
2022-12-23T22:17:19.252Z,26.43
2022-12-23T22:20:23.770Z,23.80
2022-12-23T22:23:26.722Z,27.77
2022-12-23T22:26:32.350Z,26.00
2022-12-23T22:29:35.314Z,24.80
2022-12-23T22:32:42.389Z,23.70
2022-12-23T22:35:55.821Z,24.47
2022-12-23T22:39:00.677Z,23.30
2022-12-23T22:42:03.684Z,22.17
2022-12-23T22:45:09.293Z,21.37
2022-12-23T22:48:12.432Z,22.27
2022-12-23T22:51:18.961Z,20.80
2022-12-23T22:54:21.996Z,21.23
2022-12-23T22:57:25.072Z,21.10
2022-12-23T23:00:28.071Z,21.47
2022-12-23T23:03:31.767Z,20.47
2022-12-23T23:06:38.692Z,19.90
2022-12-23T23:09:41.781Z,20.53
2022-12-23T23:12:44.870Z,19.30
2022-12-23T23:15:48.908Z,18.90
2022-12-23T23:18:52.441Z,19.00
2022-12-23T23:21:56.851Z,18.50
2022-12-23T23:24:59.894Z,18.23
2022-12-23T23:28:02.979Z,17.50
2022-12-23T23:31:39.696Z,16.97
2022-12-23T23:34:29.653Z,17.40
2022-12-23T23:37:33.986Z,16.70
2022-12-23T23:40:37.391Z,16.90
2022-12-23T23:43:40.448Z,16.60
2022-12-23T23:46:43.417Z,15.70
2022-12-23T23:49:46.477Z,15.37
2022-12-23T23:52:50.973Z,16.07
2022-12-23T23:55:53.964Z,15.50
2022-12-23T23:58:57.768Z,15.00
